sensor_id;sensor_type;location;lat;lon;timestamp;P1;durP1;ratioP1;P2;durP2;ratioP2
8312;SDS011;4194;43.408;24.626;2023-01-13T00:02:14;18.87;;;10.83;;
8312;SDS011;4194;43.408;24.626;2023-01-13T00:04:41;14.17;;;9.27;;
8312;SDS011;4194;43.408;24.626;2023-01-13T00:07:06;11.50;;;7.83;;
8312;SDS011;4194;43.408;24.626;2023-01-13T00:09:32;14.30;;;8.77;;
8312;SDS011;4194;43.408;24.626;2023-01-13T00:11:58;19.33;;;10.97;;
8312;SDS011;4194;43.408;24.626;2023-01-13T00:14:23;21.93;;;12.73;;
8312;SDS011;4194;43.408;24.626;2023-01-13T00:16:50;24.07;;;13.37;;
8312;SDS011;4194;43.408;24.626;2023-01-13T00:19:16;16.87;;;10.40;;
8312;SDS011;4194;43.408;24.626;2023-01-13T00:21:42;19.83;;;10.27;;
8312;SDS011;4194;43.408;24.626;2023-01-13T00:24:08;17.73;;;11.03;;
8312;SDS011;4194;43.408;24.626;2023-01-13T00:26:34;20.50;;;12.53;;
8312;SDS011;4194;43.408;24.626;2023-01-13T00:29:00;20.40;;;11.70;;
8312;SDS011;4194;43.408;24.626;2023-01-13T00:31:27;23.60;;;12.77;;
8312;SDS011;4194;43.408;24.626;2023-01-13T00:33:54;19.63;;;11.90;;
8312;SDS011;4194;43.408;24.626;2023-01-13T00:36:21;20.40;;;11.23;;
8312;SDS011;4194;43.408;24.626;2023-01-13T00:38:47;16.60;;;10.63;;
8312;SDS011;4194;43.408;24.626;2023-01-13T00:41:14;18.50;;;11.13;;
8312;SDS011;4194;43.408;24.626;2023-01-13T00:43:44;16.10;;;10.40;;
8312;SDS011;4194;43.408;24.626;2023-01-13T00:46:11;18.03;;;11.77;;
8312;SDS011;4194;43.408;24.626;2023-01-13T00:48:39;18.17;;;10.83;;
8312;SDS011;4194;43.408;24.626;2023-01-13T00:51:06;17.00;;;10.17;;
8312;SDS011;4194;43.408;24.626;2023-01-13T00:53:35;15.73;;;10.30;;
8312;SDS011;4194;43.408;24.626;2023-01-13T00:56:07;16.73;;;11.10;;
8312;SDS011;4194;43.408;24.626;2023-01-13T00:58:38;16.17;;;10.70;;
8312;SDS011;4194;43.408;24.626;2023-01-13T01:01:08;16.70;;;10.53;;
8312;SDS011;4194;43.408;24.626;2023-01-13T01:03:35;15.23;;;10.43;;
8312;SDS011;4194;43.408;24.626;2023-01-13T01:06:03;16.60;;;10.67;;
8312;SDS011;4194;43.408;24.626;2023-01-13T01:08:30;16.40;;;10.33;;
8312;SDS011;4194;43.408;24.626;2023-01-13T01:11:00;16.40;;;10.67;;
8312;SDS011;4194;43.408;24.626;2023-01-13T01:13:31;17.10;;;10.63;;
8312;SDS011;4194;43.408;24.626;2023-01-13T01:15:57;15.87;;;10.57;;
8312;SDS011;4194;43.408;24.626;2023-01-13T01:18:23;17.20;;;10.73;;
8312;SDS011;4194;43.408;24.626;2023-01-13T01:20:48;18.93;;;10.87;;
8312;SDS011;4194;43.408;24.626;2023-01-13T01:23:14;19.03;;;11.27;;
8312;SDS011;4194;43.408;24.626;2023-01-13T01:25:40;15.37;;;10.43;;
8312;SDS011;4194;43.408;24.626;2023-01-13T01:28:06;17.03;;;10.33;;
8312;SDS011;4194;43.408;24.626;2023-01-13T01:30:31;18.83;;;11.00;;
8312;SDS011;4194;43.408;24.626;2023-01-13T01:32:57;17.83;;;11.37;;
8312;SDS011;4194;43.408;24.626;2023-01-13T01:35:23;17.83;;;12.10;;
8312;SDS011;4194;43.408;24.626;2023-01-13T01:37:48;17.60;;;10.03;;
8312;SDS011;4194;43.408;24.626;2023-01-13T01:40:14;16.27;;;10.57;;
8312;SDS011;4194;43.408;24.626;2023-01-13T01:42:40;17.57;;;10.47;;
8312;SDS011;4194;43.408;24.626;2023-01-13T01:45:26;14.63;;;9.53;;
8312;SDS011;4194;43.408;24.626;2023-01-13T01:47:58;19.63;;;11.67;;
8312;SDS011;4194;43.408;24.626;2023-01-13T01:50:26;20.67;;;9.87;;
8312;SDS011;4194;43.408;24.626;2023-01-13T01:52:54;19.87;;;12.20;;
8312;SDS011;4194;43.408;24.626;2023-01-13T01:55:28;20.97;;;11.67;;
8312;SDS011;4194;43.408;24.626;2023-01-13T01:58:05;18.87;;;11.60;;
8312;SDS011;4194;43.408;24.626;2023-01-13T02:00:35;20.37;;;11.53;;
8312;SDS011;4194;43.408;24.626;2023-01-13T02:03:00;16.87;;;10.83;;
8312;SDS011;4194;43.408;24.626;2023-01-13T02:05:28;18.03;;;11.07;;
8312;SDS011;4194;43.408;24.626;2023-01-13T02:07:54;17.57;;;11.67;;
8312;SDS011;4194;43.408;24.626;2023-01-13T02:10:22;21.00;;;12.70;;
8312;SDS011;4194;43.408;24.626;2023-01-13T02:12:51;18.37;;;12.60;;
8312;SDS011;4194;43.408;24.626;2023-01-13T02:15:20;20.40;;;12.53;;
8312;SDS011;4194;43.408;24.626;2023-01-13T02:29:46;21.10;;;12.37;;
8312;SDS011;4194;43.408;24.626;2023-01-13T02:33:19;20.53;;;11.27;;
8312;SDS011;4194;43.408;24.626;2023-01-13T02:38:24;16.87;;;10.63;;
8312;SDS011;4194;43.408;24.626;2023-01-13T02:40:57;20.80;;;12.00;;
8312;SDS011;4194;43.408;24.626;2023-01-13T02:43:47;18.60;;;11.30;;
8312;SDS011;4194;43.408;24.626;2023-01-13T02:46:52;18.33;;;11.40;;
8312;SDS011;4194;43.408;24.626;2023-01-13T02:49:28;15.47;;;9.03;;
8312;SDS011;4194;43.408;24.626;2023-01-13T02:52:06;17.67;;;11.00;;
8312;SDS011;4194;43.408;24.626;2023-01-13T02:54:43;27.30;;;13.23;;
8312;SDS011;4194;43.408;24.626;2023-01-13T02:57:15;24.60;;;13.00;;
8312;SDS011;4194;43.408;24.626;2023-01-13T02:59:42;15.53;;;9.27;;
8312;SDS011;4194;43.408;24.626;2023-01-13T03:02:09;13.30;;;8.83;;
8312;SDS011;4194;43.408;24.626;2023-01-13T03:07:26;13.23;;;8.73;;
8312;SDS011;4194;43.408;24.626;2023-01-13T03:12:56;11.93;;;8.43;;
8312;SDS011;4194;43.408;24.626;2023-01-13T03:15:42;10.27;;;7.47;;
8312;SDS011;4194;43.408;24.626;2023-01-13T03:18:40;13.07;;;8.40;;
8312;SDS011;4194;43.408;24.626;2023-01-13T03:24:19;13.23;;;8.63;;
8312;SDS011;4194;43.408;24.626;2023-01-13T03:27:04;12.40;;;7.90;;
8312;SDS011;4194;43.408;24.626;2023-01-13T03:29:56;11.50;;;8.17;;
8312;SDS011;4194;43.408;24.626;2023-01-13T03:32:29;13.13;;;8.33;;
8312;SDS011;4194;43.408;24.626;2023-01-13T03:37:43;10.77;;;7.77;;
8312;SDS011;4194;43.408;24.626;2023-01-13T03:40:13;11.37;;;7.97;;
8312;SDS011;4194;43.408;24.626;2023-01-13T03:42:41;11.63;;;7.83;;
8312;SDS011;4194;43.408;24.626;2023-01-13T03:45:30;11.80;;;7.70;;
8312;SDS011;4194;43.408;24.626;2023-01-13T03:47:59;10.10;;;7.20;;
8312;SDS011;4194;43.408;24.626;2023-01-13T03:50:35;9.50;;;6.47;;
8312;SDS011;4194;43.408;24.626;2023-01-13T03:53:06;10.00;;;7.13;;
8312;SDS011;4194;43.408;24.626;2023-01-13T03:55:39;11.87;;;8.07;;
8312;SDS011;4194;43.408;24.626;2023-01-13T03:58:13;26.93;;;14.80;;
8312;SDS011;4194;43.408;24.626;2023-01-13T04:00:59;23.30;;;13.67;;
8312;SDS011;4194;43.408;24.626;2023-01-13T04:03:48;15.70;;;10.07;;
8312;SDS011;4194;43.408;24.626;2023-01-13T04:06:44;15.80;;;10.07;;
8312;SDS011;4194;43.408;24.626;2023-01-13T04:09:19;15.00;;;10.33;;
8312;SDS011;4194;43.408;24.626;2023-01-13T04:15:17;16.87;;;10.13;;
8312;SDS011;4194;43.408;24.626;2023-01-13T04:17:46;18.13;;;11.23;;
8312;SDS011;4194;43.408;24.626;2023-01-13T04:20:12;17.67;;;10.13;;
8312;SDS011;4194;43.408;24.626;2023-01-13T04:22:38;13.70;;;9.53;;
8312;SDS011;4194;43.408;24.626;2023-01-13T04:25:04;17.53;;;10.60;;
8312;SDS011;4194;43.408;24.626;2023-01-13T04:27:30;13.63;;;8.90;;
8312;SDS011;4194;43.408;24.626;2023-01-13T04:29:56;13.63;;;8.80;;
8312;SDS011;4194;43.408;24.626;2023-01-13T04:32:21;13.67;;;9.33;;
8312;SDS011;4194;43.408;24.626;2023-01-13T04:34:47;12.03;;;8.97;;
8312;SDS011;4194;43.408;24.626;2023-01-13T04:37:13;14.07;;;9.17;;
8312;SDS011;4194;43.408;24.626;2023-01-13T04:39:38;13.57;;;8.80;;
8312;SDS011;4194;43.408;24.626;2023-01-13T04:42:04;13.70;;;9.40;;
8312;SDS011;4194;43.408;24.626;2023-01-13T04:44:30;12.87;;;9.67;;
8312;SDS011;4194;43.408;24.626;2023-01-13T04:46:59;14.00;;;9.33;;
8312;SDS011;4194;43.408;24.626;2023-01-13T04:49:27;12.10;;;9.37;;
8312;SDS011;4194;43.408;24.626;2023-01-13T04:51:53;17.73;;;11.70;;
8312;SDS011;4194;43.408;24.626;2023-01-13T04:54:19;9.93;;;8.07;;
8312;SDS011;4194;43.408;24.626;2023-01-13T04:56:44;12.63;;;7.97;;
8312;SDS011;4194;43.408;24.626;2023-01-13T04:59:10;11.73;;;8.10;;
8312;SDS011;4194;43.408;24.626;2023-01-13T05:01:37;12.87;;;8.13;;
8312;SDS011;4194;43.408;24.626;2023-01-13T05:04:03;12.20;;;8.17;;
8312;SDS011;4194;43.408;24.626;2023-01-13T05:06:29;11.17;;;8.57;;
8312;SDS011;4194;43.408;24.626;2023-01-13T05:08:55;10.53;;;7.93;;
8312;SDS011;4194;43.408;24.626;2023-01-13T05:11:21;14.23;;;9.43;;
8312;SDS011;4194;43.408;24.626;2023-01-13T05:14:05;10.00;;;8.40;;
8312;SDS011;4194;43.408;24.626;2023-01-13T05:16:52;16.00;;;11.57;;
8312;SDS011;4194;43.408;24.626;2023-01-13T05:19:35;12.80;;;10.00;;
8312;SDS011;4194;43.408;24.626;2023-01-13T05:22:05;20.63;;;16.33;;
8312;SDS011;4194;43.408;24.626;2023-01-13T05:24:49;25.20;;;16.97;;
8312;SDS011;4194;43.408;24.626;2023-01-13T05:27:33;36.27;;;22.53;;
8312;SDS011;4194;43.408;24.626;2023-01-13T05:29:59;34.60;;;21.60;;
8312;SDS011;4194;43.408;24.626;2023-01-13T05:32:25;22.80;;;15.53;;
8312;SDS011;4194;43.408;24.626;2023-01-13T05:34:52;28.70;;;19.13;;
8312;SDS011;4194;43.408;24.626;2023-01-13T05:37:18;20.10;;;12.20;;
8312;SDS011;4194;43.408;24.626;2023-01-13T05:39:44;13.90;;;9.37;;
8312;SDS011;4194;43.408;24.626;2023-01-13T05:42:28;14.10;;;9.63;;
8312;SDS011;4194;43.408;24.626;2023-01-13T05:45:12;16.33;;;11.70;;
8312;SDS011;4194;43.408;24.626;2023-01-13T05:47:38;14.53;;;10.03;;
8312;SDS011;4194;43.408;24.626;2023-01-13T05:50:04;14.30;;;8.17;;
8312;SDS011;4194;43.408;24.626;2023-01-13T05:52:30;18.90;;;13.00;;
8312;SDS011;4194;43.408;24.626;2023-01-13T05:54:56;17.63;;;12.80;;
8312;SDS011;4194;43.408;24.626;2023-01-13T05:57:22;16.60;;;10.20;;
8312;SDS011;4194;43.408;24.626;2023-01-13T05:59:47;13.73;;;9.60;;
8312;SDS011;4194;43.408;24.626;2023-01-13T06:02:13;12.90;;;9.70;;
8312;SDS011;4194;43.408;24.626;2023-01-13T06:04:39;13.67;;;9.03;;
8312;SDS011;4194;43.408;24.626;2023-01-13T06:07:05;13.27;;;10.07;;
8312;SDS011;4194;43.408;24.626;2023-01-13T06:09:30;11.60;;;9.70;;
8312;SDS011;4194;43.408;24.626;2023-01-13T06:11:56;15.07;;;10.10;;
8312;SDS011;4194;43.408;24.626;2023-01-13T06:14:21;17.20;;;11.47;;
8312;SDS011;4194;43.408;24.626;2023-01-13T06:16:47;17.50;;;11.93;;
8312;SDS011;4194;43.408;24.626;2023-01-13T06:19:13;14.70;;;9.97;;
8312;SDS011;4194;43.408;24.626;2023-01-13T06:21:39;15.70;;;11.23;;
8312;SDS011;4194;43.408;24.626;2023-01-13T06:24:05;14.67;;;10.40;;
8312;SDS011;4194;43.408;24.626;2023-01-13T06:26:38;13.70;;;9.50;;
8312;SDS011;4194;43.408;24.626;2023-01-13T06:29:05;10.13;;;7.33;;
8312;SDS011;4194;43.408;24.626;2023-01-13T06:31:34;10.20;;;7.20;;
8312;SDS011;4194;43.408;24.626;2023-01-13T06:34:04;12.57;;;8.03;;
8312;SDS011;4194;43.408;24.626;2023-01-13T06:36:40;9.50;;;7.50;;
8312;SDS011;4194;43.408;24.626;2023-01-13T06:39:09;10.80;;;8.00;;
8312;SDS011;4194;43.408;24.626;2023-01-13T06:41:42;12.53;;;8.77;;
8312;SDS011;4194;43.408;24.626;2023-01-13T06:44:26;38.00;;;21.80;;
8312;SDS011;4194;43.408;24.626;2023-01-13T06:46:53;32.30;;;23.57;;
8312;SDS011;4194;43.408;24.626;2023-01-13T06:49:18;30.33;;;22.23;;
8312;SDS011;4194;43.408;24.626;2023-01-13T06:51:44;23.57;;;16.60;;
8312;SDS011;4194;43.408;24.626;2023-01-13T06:54:10;24.80;;;16.03;;
8312;SDS011;4194;43.408;24.626;2023-01-13T06:56:36;31.70;;;18.60;;
8312;SDS011;4194;43.408;24.626;2023-01-13T06:59:02;32.30;;;19.73;;
8312;SDS011;4194;43.408;24.626;2023-01-13T07:01:27;38.63;;;20.17;;
8312;SDS011;4194;43.408;24.626;2023-01-13T07:03:54;40.63;;;20.03;;
8312;SDS011;4194;43.408;24.626;2023-01-13T07:06:19;29.80;;;18.83;;
8312;SDS011;4194;43.408;24.626;2023-01-13T07:08:45;33.17;;;19.57;;
8312;SDS011;4194;43.408;24.626;2023-01-13T07:11:10;28.47;;;16.27;;
8312;SDS011;4194;43.408;24.626;2023-01-13T07:13:36;19.37;;;12.77;;
8312;SDS011;4194;43.408;24.626;2023-01-13T07:16:21;22.90;;;13.47;;
8312;SDS011;4194;43.408;24.626;2023-01-13T07:18:48;19.03;;;12.87;;
8312;SDS011;4194;43.408;24.626;2023-01-13T07:21:14;17.43;;;11.40;;
8312;SDS011;4194;43.408;24.626;2023-01-13T07:23:43;18.40;;;12.17;;
8312;SDS011;4194;43.408;24.626;2023-01-13T07:26:09;25.67;;;14.97;;
8312;SDS011;4194;43.408;24.626;2023-01-13T07:28:35;25.37;;;13.57;;
8312;SDS011;4194;43.408;24.626;2023-01-13T07:31:02;20.47;;;12.73;;
8312;SDS011;4194;43.408;24.626;2023-01-13T07:33:27;15.23;;;10.50;;
8312;SDS011;4194;43.408;24.626;2023-01-13T07:36:00;15.60;;;10.77;;
8312;SDS011;4194;43.408;24.626;2023-01-13T07:38:28;15.87;;;10.43;;
8312;SDS011;4194;43.408;24.626;2023-01-13T07:40:54;18.30;;;10.83;;
8312;SDS011;4194;43.408;24.626;2023-01-13T07:43:20;18.07;;;10.93;;
8312;SDS011;4194;43.408;24.626;2023-01-13T07:46:02;19.27;;;12.10;;
8312;SDS011;4194;43.408;24.626;2023-01-13T07:48:30;20.80;;;13.13;;
8312;SDS011;4194;43.408;24.626;2023-01-13T07:51:00;22.90;;;14.07;;
8312;SDS011;4194;43.408;24.626;2023-01-13T07:53:26;23.43;;;15.07;;
8312;SDS011;4194;43.408;24.626;2023-01-13T07:55:55;19.70;;;13.80;;
8312;SDS011;4194;43.408;24.626;2023-01-13T07:58:23;18.23;;;13.13;;
8312;SDS011;4194;43.408;24.626;2023-01-13T08:00:49;19.13;;;14.30;;
8312;SDS011;4194;43.408;24.626;2023-01-13T08:03:15;26.53;;;15.33;;
8312;SDS011;4194;43.408;24.626;2023-01-13T08:05:41;28.17;;;16.40;;
8312;SDS011;4194;43.408;24.626;2023-01-13T08:08:06;22.33;;;16.37;;
8312;SDS011;4194;43.408;24.626;2023-01-13T08:10:32;21.17;;;15.47;;
8312;SDS011;4194;43.408;24.626;2023-01-13T08:12:58;40.77;;;26.33;;
8312;SDS011;4194;43.408;24.626;2023-01-13T08:15:42;28.93;;;18.53;;
8312;SDS011;4194;43.408;24.626;2023-01-13T08:18:09;18.60;;;13.33;;
8312;SDS011;4194;43.408;24.626;2023-01-13T08:20:34;17.07;;;12.87;;
8312;SDS011;4194;43.408;24.626;2023-01-13T08:23:01;18.77;;;12.27;;
8312;SDS011;4194;43.408;24.626;2023-01-13T08:25:27;17.27;;;12.23;;
8312;SDS011;4194;43.408;24.626;2023-01-13T08:27:54;20.07;;;12.23;;
8312;SDS011;4194;43.408;24.626;2023-01-13T08:30:20;16.93;;;12.17;;
8312;SDS011;4194;43.408;24.626;2023-01-13T08:32:47;15.53;;;12.10;;
8312;SDS011;4194;43.408;24.626;2023-01-13T08:35:14;17.00;;;11.03;;
8312;SDS011;4194;43.408;24.626;2023-01-13T08:37:40;13.40;;;9.60;;
8312;SDS011;4194;43.408;24.626;2023-01-13T08:40:06;14.43;;;9.37;;
8312;SDS011;4194;43.408;24.626;2023-01-13T08:42:33;12.90;;;9.17;;
8312;SDS011;4194;43.408;24.626;2023-01-13T08:44:59;10.03;;;6.83;;
8312;SDS011;4194;43.408;24.626;2023-01-13T08:47:28;7.67;;;6.63;;
8312;SDS011;4194;43.408;24.626;2023-01-13T08:49:54;9.47;;;7.20;;
8312;SDS011;4194;43.408;24.626;2023-01-13T08:52:20;10.10;;;6.73;;
8312;SDS011;4194;43.408;24.626;2023-01-13T08:54:46;11.53;;;7.93;;
8312;SDS011;4194;43.408;24.626;2023-01-13T08:57:12;11.53;;;7.50;;
8312;SDS011;4194;43.408;24.626;2023-01-13T08:59:39;10.13;;;7.40;;
8312;SDS011;4194;43.408;24.626;2023-01-13T09:02:15;11.90;;;7.57;;
8312;SDS011;4194;43.408;24.626;2023-01-13T09:04:42;10.47;;;6.73;;
8312;SDS011;4194;43.408;24.626;2023-01-13T09:07:09;9.30;;;6.50;;
8312;SDS011;4194;43.408;24.626;2023-01-13T09:09:35;13.00;;;8.90;;
8312;SDS011;4194;43.408;24.626;2023-01-13T09:12:01;14.53;;;9.30;;
8312;SDS011;4194;43.408;24.626;2023-01-13T09:14:46;13.67;;;9.57;;
8312;SDS011;4194;43.408;24.626;2023-01-13T09:17:12;13.80;;;10.10;;
8312;SDS011;4194;43.408;24.626;2023-01-13T09:19:39;17.00;;;14.63;;
8312;SDS011;4194;43.408;24.626;2023-01-13T09:22:05;9.93;;;7.33;;
8312;SDS011;4194;43.408;24.626;2023-01-13T09:24:31;10.73;;;6.43;;
8312;SDS011;4194;43.408;24.626;2023-01-13T09:26:56;11.63;;;6.97;;
8312;SDS011;4194;43.408;24.626;2023-01-13T09:29:22;8.17;;;5.83;;
8312;SDS011;4194;43.408;24.626;2023-01-13T09:31:48;8.80;;;5.40;;
8312;SDS011;4194;43.408;24.626;2023-01-13T09:34:15;10.83;;;6.90;;
8312;SDS011;4194;43.408;24.626;2023-01-13T09:37:01;9.80;;;6.80;;
8312;SDS011;4194;43.408;24.626;2023-01-13T09:39:27;14.10;;;9.57;;
8312;SDS011;4194;43.408;24.626;2023-01-13T09:41:54;14.50;;;10.63;;
8312;SDS011;4194;43.408;24.626;2023-01-13T09:49:58;10.70;;;7.23;;
8312;SDS011;4194;43.408;24.626;2023-01-13T09:52:39;11.97;;;7.30;;
8312;SDS011;4194;43.408;24.626;2023-01-13T09:58:05;12.87;;;8.50;;
8312;SDS011;4194;43.408;24.626;2023-01-13T10:03:28;12.30;;;8.27;;
8312;SDS011;4194;43.408;24.626;2023-01-13T10:05:57;12.27;;;8.87;;
8312;SDS011;4194;43.408;24.626;2023-01-13T10:08:38;11.23;;;8.20;;
8312;SDS011;4194;43.408;24.626;2023-01-13T10:11:13;12.13;;;9.00;;
8312;SDS011;4194;43.408;24.626;2023-01-13T10:14:16;14.43;;;9.43;;
8312;SDS011;4194;43.408;24.626;2023-01-13T10:17:06;15.77;;;11.40;;
8312;SDS011;4194;43.408;24.626;2023-01-13T10:22:49;15.53;;;11.87;;
8312;SDS011;4194;43.408;24.626;2023-01-13T10:28:11;13.13;;;8.70;;
8312;SDS011;4194;43.408;24.626;2023-01-13T10:30:40;12.53;;;7.97;;
8312;SDS011;4194;43.408;24.626;2023-01-13T10:33:12;11.10;;;7.90;;
8312;SDS011;4194;43.408;24.626;2023-01-13T10:36:00;10.37;;;7.70;;
8312;SDS011;4194;43.408;24.626;2023-01-13T10:38:47;9.60;;;6.83;;
8312;SDS011;4194;43.408;24.626;2023-01-13T10:43:59;10.23;;;7.63;;
8312;SDS011;4194;43.408;24.626;2023-01-13T10:46:28;14.63;;;9.43;;
8312;SDS011;4194;43.408;24.626;2023-01-13T10:48:59;13.40;;;9.60;;
8312;SDS011;4194;43.408;24.626;2023-01-13T10:51:31;12.43;;;8.53;;
8312;SDS011;4194;43.408;24.626;2023-01-13T10:56:43;9.73;;;7.50;;
8312;SDS011;4194;43.408;24.626;2023-01-13T11:01:58;9.47;;;6.90;;
8312;SDS011;4194;43.408;24.626;2023-01-13T11:04:29;9.43;;;6.10;;
8312;SDS011;4194;43.408;24.626;2023-01-13T11:06:56;5.53;;;4.70;;
8312;SDS011;4194;43.408;24.626;2023-01-13T11:09:22;8.57;;;4.93;;
8312;SDS011;4194;43.408;24.626;2023-01-13T11:11:51;6.17;;;4.40;;
8312;SDS011;4194;43.408;24.626;2023-01-13T11:14:35;7.67;;;5.37;;
8312;SDS011;4194;43.408;24.626;2023-01-13T11:19:52;6.57;;;4.47;;
8312;SDS011;4194;43.408;24.626;2023-01-13T11:22:31;7.00;;;4.43;;
8312;SDS011;4194;43.408;24.626;2023-01-13T11:25:02;7.33;;;4.20;;
8312;SDS011;4194;43.408;24.626;2023-01-13T11:27:42;4.23;;;3.33;;
8312;SDS011;4194;43.408;24.626;2023-01-13T11:35:43;4.40;;;3.53;;
8312;SDS011;4194;43.408;24.626;2023-01-13T11:41:00;4.80;;;3.70;;
8312;SDS011;4194;43.408;24.626;2023-01-13T11:46:25;7.27;;;3.00;;
8312;SDS011;4194;43.408;24.626;2023-01-13T11:48:51;4.37;;;2.83;;
8312;SDS011;4194;43.408;24.626;2023-01-13T11:52:03;3.73;;;2.83;;
8312;SDS011;4194;43.408;24.626;2023-01-13T12:10:50;6.43;;;3.90;;
8312;SDS011;4194;43.408;24.626;2023-01-13T12:16:50;5.73;;;4.00;;
8312;SDS011;4194;43.408;24.626;2023-01-13T12:19:26;15.90;;;4.73;;
8312;SDS011;4194;43.408;24.626;2023-01-13T12:24:40;7.70;;;3.33;;
8312;SDS011;4194;43.408;24.626;2023-01-13T12:29:39;4.27;;;2.90;;
8312;SDS011;4194;43.408;24.626;2023-01-13T12:32:15;9.27;;;2.90;;
8312;SDS011;4194;43.408;24.626;2023-01-13T12:40:10;16.70;;;11.00;;
8312;SDS011;4194;43.408;24.626;2023-01-13T12:51:23;7.40;;;4.47;;
8312;SDS011;4194;43.408;24.626;2023-01-13T12:53:50;5.57;;;4.50;;
8312;SDS011;4194;43.408;24.626;2023-01-13T13:01:45;9.90;;;5.40;;
8312;SDS011;4194;43.408;24.626;2023-01-13T13:04:44;5.23;;;4.40;;
8312;SDS011;4194;43.408;24.626;2023-01-13T13:15:32;8.10;;;5.73;;
8312;SDS011;4194;43.408;24.626;2023-01-13T13:23:27;10.87;;;6.63;;
8312;SDS011;4194;43.408;24.626;2023-01-13T13:26:13;12.50;;;7.27;;
8312;SDS011;4194;43.408;24.626;2023-01-13T13:39:53;7.30;;;5.70;;
8312;SDS011;4194;43.408;24.626;2023-01-13T13:42:45;16.50;;;8.43;;
8312;SDS011;4194;43.408;24.626;2023-01-13T13:45:38;8.93;;;5.00;;
8312;SDS011;4194;43.408;24.626;2023-01-13T13:48:33;9.13;;;4.93;;
8312;SDS011;4194;43.408;24.626;2023-01-13T13:50:59;10.20;;;6.17;;
8312;SDS011;4194;43.408;24.626;2023-01-13T13:53:32;9.70;;;4.37;;
8312;SDS011;4194;43.408;24.626;2023-01-13T13:56:01;4.43;;;3.50;;
8312;SDS011;4194;43.408;24.626;2023-01-13T13:58:29;7.90;;;3.43;;
8312;SDS011;4194;43.408;24.626;2023-01-13T14:00:57;3.30;;;3.00;;
8312;SDS011;4194;43.408;24.626;2023-01-13T14:03:29;4.03;;;3.40;;
8312;SDS011;4194;43.408;24.626;2023-01-13T14:08:27;10.40;;;3.37;;
8312;SDS011;4194;43.408;24.626;2023-01-13T14:10:54;7.17;;;5.50;;
8312;SDS011;4194;43.408;24.626;2023-01-13T14:13:21;6.50;;;4.80;;
8312;SDS011;4194;43.408;24.626;2023-01-13T14:15:55;4.23;;;3.43;;
8312;SDS011;4194;43.408;24.626;2023-01-13T14:18:29;9.57;;;3.50;;
8312;SDS011;4194;43.408;24.626;2023-01-13T14:20:58;8.80;;;4.00;;
8312;SDS011;4194;43.408;24.626;2023-01-13T14:23:30;10.33;;;5.00;;
8312;SDS011;4194;43.408;24.626;2023-01-13T14:26:15;7.70;;;3.73;;
8312;SDS011;4194;43.408;24.626;2023-01-13T14:28:41;3.90;;;3.53;;
8312;SDS011;4194;43.408;24.626;2023-01-13T14:31:08;7.70;;;4.67;;
8312;SDS011;4194;43.408;24.626;2023-01-13T14:33:35;6.13;;;4.60;;
8312;SDS011;4194;43.408;24.626;2023-01-13T14:38:48;15.03;;;11.07;;
8312;SDS011;4194;43.408;24.626;2023-01-13T14:46:51;12.30;;;6.10;;
8312;SDS011;4194;43.408;24.626;2023-01-13T14:49:29;8.87;;;6.23;;
8312;SDS011;4194;43.408;24.626;2023-01-13T14:52:03;10.00;;;5.87;;
8312;SDS011;4194;43.408;24.626;2023-01-13T14:54:45;8.53;;;6.70;;
8312;SDS011;4194;43.408;24.626;2023-01-13T15:07:56;14.13;;;10.27;;
8312;SDS011;4194;43.408;24.626;2023-01-13T15:18:38;15.03;;;11.40;;
8312;SDS011;4194;43.408;24.626;2023-01-13T15:21:05;15.13;;;10.93;;
8312;SDS011;4194;43.408;24.626;2023-01-13T15:23:31;19.30;;;11.47;;
8312;SDS011;4194;43.408;24.626;2023-01-13T15:25:58;17.70;;;9.87;;
8312;SDS011;4194;43.408;24.626;2023-01-13T15:28:25;18.03;;;10.87;;
8312;SDS011;4194;43.408;24.626;2023-01-13T15:30:52;15.27;;;9.77;;
8312;SDS011;4194;43.408;24.626;2023-01-13T15:33:19;16.83;;;11.27;;
8312;SDS011;4194;43.408;24.626;2023-01-13T15:35:46;16.47;;;11.87;;
8312;SDS011;4194;43.408;24.626;2023-01-13T15:38:15;22.23;;;13.03;;
8312;SDS011;4194;43.408;24.626;2023-01-13T15:40:43;23.97;;;14.93;;
8312;SDS011;4194;43.408;24.626;2023-01-13T15:43:31;27.30;;;15.67;;
8312;SDS011;4194;43.408;24.626;2023-01-13T15:46:15;23.43;;;15.47;;
8312;SDS011;4194;43.408;24.626;2023-01-13T15:49:05;21.97;;;15.27;;
8312;SDS011;4194;43.408;24.626;2023-01-13T15:51:37;18.10;;;13.10;;
8312;SDS011;4194;43.408;24.626;2023-01-13T15:54:04;19.83;;;14.53;;
8312;SDS011;4194;43.408;24.626;2023-01-13T15:56:31;21.93;;;13.87;;
8312;SDS011;4194;43.408;24.626;2023-01-13T15:59:00;25.90;;;16.90;;
8312;SDS011;4194;43.408;24.626;2023-01-13T16:01:26;28.83;;;18.70;;
8312;SDS011;4194;43.408;24.626;2023-01-13T16:03:52;31.23;;;18.40;;
8312;SDS011;4194;43.408;24.626;2023-01-13T16:06:20;34.53;;;21.30;;
8312;SDS011;4194;43.408;24.626;2023-01-13T16:08:51;42.63;;;25.30;;
8312;SDS011;4194;43.408;24.626;2023-01-13T16:11:17;33.17;;;23.50;;
8312;SDS011;4194;43.408;24.626;2023-01-13T16:13:43;30.27;;;21.43;;
8312;SDS011;4194;43.408;24.626;2023-01-13T16:16:12;24.60;;;19.63;;
8312;SDS011;4194;43.408;24.626;2023-01-13T16:18:42;25.60;;;18.17;;
8312;SDS011;4194;43.408;24.626;2023-01-13T16:21:09;25.63;;;17.50;;
8312;SDS011;4194;43.408;24.626;2023-01-13T16:23:36;28.33;;;18.47;;
8312;SDS011;4194;43.408;24.626;2023-01-13T16:26:05;31.97;;;22.03;;
8312;SDS011;4194;43.408;24.626;2023-01-13T16:28:38;26.67;;;19.00;;
8312;SDS011;4194;43.408;24.626;2023-01-13T16:31:20;47.67;;;31.97;;
8312;SDS011;4194;43.408;24.626;2023-01-13T16:33:46;31.87;;;25.47;;
8312;SDS011;4194;43.408;24.626;2023-01-13T16:36:13;36.43;;;24.40;;
8312;SDS011;4194;43.408;24.626;2023-01-13T16:38:41;34.47;;;23.57;;
8312;SDS011;4194;43.408;24.626;2023-01-13T16:41:07;32.87;;;23.63;;
8312;SDS011;4194;43.408;24.626;2023-01-13T16:43:33;31.30;;;21.97;;
8312;SDS011;4194;43.408;24.626;2023-01-13T16:45:59;34.73;;;20.53;;
8312;SDS011;4194;43.408;24.626;2023-01-13T16:48:25;26.13;;;19.23;;
8312;SDS011;4194;43.408;24.626;2023-01-13T16:50:51;25.47;;;18.27;;
8312;SDS011;4194;43.408;24.626;2023-01-13T16:53:16;27.80;;;19.77;;
8312;SDS011;4194;43.408;24.626;2023-01-13T16:55:42;33.27;;;22.30;;
8312;SDS011;4194;43.408;24.626;2023-01-13T16:58:16;34.93;;;22.30;;
8312;SDS011;4194;43.408;24.626;2023-01-13T17:00:44;33.93;;;23.77;;
8312;SDS011;4194;43.408;24.626;2023-01-13T17:03:13;38.63;;;26.50;;
8312;SDS011;4194;43.408;24.626;2023-01-13T17:05:40;41.37;;;25.90;;
8312;SDS011;4194;43.408;24.626;2023-01-13T17:08:10;47.17;;;25.83;;
8312;SDS011;4194;43.408;24.626;2023-01-13T17:10:39;38.83;;;25.93;;
8312;SDS011;4194;43.408;24.626;2023-01-13T17:13:05;45.33;;;26.40;;
8312;SDS011;4194;43.408;24.626;2023-01-13T17:15:31;36.43;;;23.37;;
8312;SDS011;4194;43.408;24.626;2023-01-13T17:17:59;38.57;;;23.73;;
8312;SDS011;4194;43.408;24.626;2023-01-13T17:20:25;34.93;;;22.77;;
8312;SDS011;4194;43.408;24.626;2023-01-13T17:22:51;36.57;;;23.23;;
8312;SDS011;4194;43.408;24.626;2023-01-13T17:25:16;37.33;;;23.93;;
8312;SDS011;4194;43.408;24.626;2023-01-13T17:27:42;37.73;;;23.53;;
8312;SDS011;4194;43.408;24.626;2023-01-13T17:30:08;37.57;;;25.23;;
8312;SDS011;4194;43.408;24.626;2023-01-13T17:32:36;44.07;;;29.43;;
8312;SDS011;4194;43.408;24.626;2023-01-13T17:35:01;56.63;;;35.10;;
8312;SDS011;4194;43.408;24.626;2023-01-13T17:37:28;55.33;;;35.37;;
8312;SDS011;4194;43.408;24.626;2023-01-13T17:39:53;53.43;;;34.73;;
8312;SDS011;4194;43.408;24.626;2023-01-13T17:42:19;47.90;;;32.67;;
8312;SDS011;4194;43.408;24.626;2023-01-13T17:44:45;49.03;;;33.33;;
8312;SDS011;4194;43.408;24.626;2023-01-13T17:47:12;47.27;;;31.80;;
8312;SDS011;4194;43.408;24.626;2023-01-13T17:49:38;65.67;;;41.77;;
8312;SDS011;4194;43.408;24.626;2023-01-13T17:52:03;56.87;;;39.50;;